Other Surface Observations
Issued by NWS Great Falls, MT

Home | Current Version | Previous Version | Text Only | Print | Product List | Glossary On
Versions: 1 2 3 4 5 6 7 8 9 10 11 12 13 14 15 16 17 18 19 20 21 22 23 24 25 26 27 28 29 30 31 32 33 34 35 36 37 38 39 40 41 42 43 44 45 46 47 48 49 50
000
SXUS55 KTFX 191206
OSOTFX

AREA AWOS OBSERVATIONS
NATIONAL WEATHER SERVICE GREAT FALLS MT
0605 AM MDT Sat Apr 19 2014

METAR K1S3 191200Z AUTO 23005KT 10SM 05/M08 A2994
METAR K38S 191200Z AUTO 00000KT 10SM M04/M11 A3002
METAR K6S0 191200Z AUTO 20014KT 10SM 03/M12 A2995
METAR K6S5 191200Z AUTO 10004KT 10SM M02/M09 A3001
METAR K79S 191200Z AUTO 21004KT 02/M07 A2995
METAR K88M 191200Z AUTO 16010KT 10SM 03/M02 A2997
METAR KEKS 191200Z AUTO 00000KT 10SM M01/M11 A3006
METAR KPO1 191200Z AUTO 26017G23KT 10SM 04/02 A2981
METAR KPWD 191200Z AUTO 26016G21KT 10SM 04/02 A2973
METAR KS59 191200Z AUTO 00000KT 10SM M04/M06 A3000
METAR KS71 191200Z AUTO 28007KT 10SM 02/M01 A2992



USA.gov is the U.S. government's official web portal to all federal, state and local government web resources and services.